Time;durP1;ratioP1;P1;durP2;ratioP2;P2;SDS_P1;SDS_P2;PMS_P1;PMS_P2;Temp;Humidity;BMP_temperature;BMP_pressure;BME280_temperature;BME280_humidity;BME280_pressure;Samples;Min_cycle;Max_cycle;Signal;HPM_P1;HPM_P2
2021/08/26 00:01:12;;;;;;;22.75;5.35;;;14.30;99.90;;;;;;4988724;28;20363;-59
2021/08/26 00:06:22;;;;;;;14.13;3.55;;;14.20;99.90;;;;;;4995682;28;20084;-59
2021/08/26 00:08:50;;;;;;;20.25;4.40;;;14.30;99.90;;;;;;4992298;28;20034;-59
2021/08/26 00:11:21;;;;;;;18.88;4.90;;;14.20;99.90;;;;;;4994536;28;20236;-60
2021/08/26 00:13:47;;;;;;;10.75;4.45;;;14.20;99.90;;;;;;4994512;28;20066;-59
2021/08/26 00:16:16;;;;;;;15.45;3.67;;;14.20;99.90;;;;;;4991639;28;20066;-60
2021/08/26 00:18:42;;;;;;;12.48;3.92;;;14.20;99.90;;;;;;4994718;28;20029;-59
2021/08/26 00:21:07;;;;;;;11.75;3.00;;;14.30;99.90;;;;;;4988936;28;20106;-59
2021/08/26 00:23:35;;;;;;;13.77;2.95;;;14.30;99.90;;;;;;4993602;28;20026;-59
2021/08/26 00:26:00;;;;;;;8.52;3.38;;;14.30;99.90;;;;;;4992345;28;20036;-60
2021/08/26 00:28:26;;;;;;;14.85;3.70;;;14.30;99.90;;;;;;4992019;28;20085;-60
2021/08/26 00:30:52;;;;;;;11.15;3.05;;;14.40;99.90;;;;;;4994240;28;20260;-60
2021/08/26 00:33:18;;;;;;;11.13;3.17;;;14.30;99.90;;;;;;4992581;28;20198;-60
2021/08/26 00:35:44;;;;;;;18.15;3.50;;;14.40;99.90;;;;;;4994563;28;20038;-60
2021/08/26 00:38:09;;;;;;;15.93;3.42;;;14.40;99.90;;;;;;4994362;28;20348;-59
2021/08/26 00:40:35;;;;;;;9.00;3.10;;;14.40;99.90;;;;;;4995763;28;20316;-60
2021/08/26 00:43:01;;;;;;;9.68;2.72;;;14.40;99.90;;;;;;4994244;28;20073;-59
2021/08/26 00:45:28;;;;;;;12.93;2.90;;;14.40;99.90;;;;;;4993666;28;20033;-59
2021/08/26 00:47:55;;;;;;;11.23;2.85;;;14.40;99.90;;;;;;4993697;28;20026;-59
2021/08/26 00:50:24;;;;;;;9.98;2.70;;;14.40;99.90;;;;;;4993422;28;20392;-60
2021/08/26 00:52:51;;;;;;;8.85;2.72;;;14.40;99.90;;;;;;4994309;28;20317;-60
2021/08/26 00:55:18;;;;;;;9.07;2.95;;;14.30;99.90;;;;;;4993455;28;20045;-60
2021/08/26 00:57:44;;;;;;;10.75;2.40;;;14.40;99.90;;;;;;4993988;28;20325;-60
2021/08/26 01:00:11;;;;;;;8.98;2.47;;;14.30;99.90;;;;;;4994083;28;20286;-60
2021/08/26 01:03:18;;;;;;;14.88;2.65;;;14.30;99.90;;;;;;4992560;28;20030;-60
2021/08/26 01:05:54;;;;;;;6.93;1.77;;;14.30;99.90;;;;;;4952012;29;20039;-59
2021/08/26 01:08:40;;;;;;;9.45;2.13;;;14.30;99.90;;;;;;4952058;29;20352;-60
2021/08/26 01:11:08;;;;;;;8.25;1.60;;;14.30;99.90;;;;;;4980615;28;20045;-59
2021/08/26 01:13:40;;;;;;;9.20;2.25;;;14.30;99.90;;;;;;4991825;28;20039;-60
2021/08/26 01:16:09;;;;;;;3.88;1.50;;;14.30;99.90;;;;;;4993167;28;20118;-60
2021/08/26 01:18:43;;;;;;;4.33;1.50;;;14.30;99.90;;;;;;4993324;28;20374;-60
2021/08/26 01:21:14;;;;;;;6.85;1.65;;;14.30;99.90;;;;;;4993472;28;20281;-59
2021/08/26 01:23:51;;;;;;;10.85;1.65;;;14.30;99.90;;;;;;4992880;28;20365;-59
2021/08/26 01:26:29;;;;;;;11.00;2.17;;;14.30;99.90;;;;;;4993384;28;20034;-60
2021/08/26 01:28:58;;;;;;;8.35;1.60;;;14.30;99.90;;;;;;4991138;28;20030;-59
2021/08/26 01:31:24;;;;;;;12.52;1.58;;;14.30;99.90;;;;;;4989588;28;20030;-60
2021/08/26 01:33:51;;;;;;;9.15;1.58;;;14.30;99.90;;;;;;4990776;28;20408;-59
2021/08/26 01:36:17;;;;;;;7.32;1.52;;;14.30;99.90;;;;;;4987404;28;20041;-59
2021/08/26 01:38:44;;;;;;;6.65;1.50;;;14.30;99.90;;;;;;4991437;28;20034;-59
2021/08/26 01:41:15;;;;;;;4.88;1.08;;;14.30;99.90;;;;;;4990985;28;20116;-59
2021/08/26 01:43:47;;;;;;;8.90;1.98;;;14.30;99.90;;;;;;4993711;28;20208;-59
2021/08/26 01:46:17;;;;;;;5.28;1.05;;;14.30;99.90;;;;;;4988462;28;20693;-59
2021/08/26 01:48:47;;;;;;;4.03;0.95;;;14.30;99.90;;;;;;4992205;28;20254;-59
2021/08/26 01:51:13;;;;;;;3.67;0.85;;;14.30;99.90;;;;;;4993023;28;20246;-59
2021/08/26 01:53:39;;;;;;;5.35;1.15;;;14.30;99.90;;;;;;4990457;28;20081;-59
2021/08/26 01:56:05;;;;;;;4.28;0.85;;;14.30;99.90;;;;;;4991854;28;20046;-59
2021/08/26 01:58:30;;;;;;;4.53;0.93;;;14.30;99.90;;;;;;4993288;28;20127;-60
2021/08/26 02:00:56;;;;;;;3.33;0.93;;;14.30;99.90;;;;;;4992975;28;20324;-59
2021/08/26 02:03:22;;;;;;;4.90;0.80;;;14.30;99.90;;;;;;4992774;28;20097;-59
2021/08/26 02:05:48;;;;;;;5.63;0.90;;;14.30;99.90;;;;;;4993432;28;20026;-59
2021/08/26 02:08:14;;;;;;;4.70;0.68;;;14.30;99.90;;;;;;4992435;28;20220;-60
2021/08/26 02:10:39;;;;;;;3.58;0.70;;;14.30;99.90;;;;;;4993018;28;20034;-60
2021/08/26 02:13:05;;;;;;;3.38;0.98;;;14.30;99.90;;;;;;4992172;28;20030;-59
2021/08/26 02:15:31;;;;;;;8.05;1.38;;;14.30;99.90;;;;;;4992876;28;20423;-60
2021/08/26 02:17:57;;;;;;;4.32;0.82;;;14.30;99.90;;;;;;4992793;28;20369;-59
2021/08/26 02:20:23;;;;;;;4.90;0.70;;;14.30;99.90;;;;;;4992703;28;20030;-60
2021/08/26 02:22:49;;;;;;;3.97;0.70;;;14.30;99.90;;;;;;4992069;28;20057;-59
2021/08/26 02:25:15;;;;;;;4.70;1.00;;;14.30;99.90;;;;;;4999779;28;20528;-60
2021/08/26 02:27:40;;;;;;;6.85;0.75;;;14.30;99.90;;;;;;4992170;28;20033;-60
2021/08/26 02:30:08;;;;;;;3.45;0.75;;;14.20;99.90;;;;;;4993220;28;20030;-60
2021/08/26 02:32:35;;;;;;;3.45;0.70;;;14.30;99.90;;;;;;4990464;28;20029;-60
2021/08/26 02:35:02;;;;;;;3.72;0.98;;;14.30;99.90;;;;;;4991489;28;20026;-60
2021/08/26 02:37:28;;;;;;;4.95;1.23;;;14.30;99.90;;;;;;4989508;28;20041;-59
2021/08/26 02:39:54;;;;;;;8.02;1.10;;;14.20;99.90;;;;;;4992136;28;20088;-60
2021/08/26 02:42:20;;;;;;;3.17;0.93;;;14.20;99.90;;;;;;4991821;28;20324;-60
2021/08/26 02:44:46;;;;;;;5.53;0.88;;;14.20;99.90;;;;;;5007076;28;20037;-60
2021/08/26 02:47:11;;;;;;;4.35;1.05;;;14.20;99.90;;;;;;4991056;28;20092;-59
2021/08/26 02:49:37;;;;;;;5.15;0.95;;;14.20;99.90;;;;;;4992644;28;20140;-59
2021/08/26 02:52:05;;;;;;;4.95;1.17;;;14.30;99.90;;;;;;4991242;28;20052;-59
2021/08/26 02:54:31;;;;;;;2.92;0.90;;;14.20;99.90;;;;;;4992241;28;20037;-60
2021/08/26 02:56:56;;;;;;;13.50;1.38;;;14.20;99.90;;;;;;4990260;28;20030;-59
2021/08/26 02:59:22;;;;;;;2.70;0.95;;;14.20;99.90;;;;;;4990612;28;20029;-59
2021/08/26 03:01:48;;;;;;;3.75;0.75;;;14.20;99.90;;;;;;4990710;28;20256;-60
2021/08/26 03:04:14;;;;;;;7.47;0.98;;;14.10;99.90;;;;;;4992891;28;20363;-60
2021/08/26 03:06:39;;;;;;;5.82;0.77;;;14.10;99.90;;;;;;4990064;28;20045;-60
2021/08/26 03:09:05;;;;;;;2.45;0.73;;;14.10;99.90;;;;;;4991521;28;20137;-60
2021/08/26 03:11:31;;;;;;;1.70;0.75;;;14.10;99.90;;;;;;4990103;28;20038;-59
2021/08/26 03:13:57;;;;;;;3.17;0.68;;;14.10;99.90;;;;;;4992522;28;20367;-59
2021/08/26 03:16:22;;;;;;;6.60;0.90;;;14.10;99.90;;;;;;4988816;28;20049;-59
2021/08/26 03:18:48;;;;;;;5.50;1.00;;;14.20;99.90;;;;;;4990825;28;20642;-60
2021/08/26 03:21:14;;;;;;;1.45;0.57;;;14.20;99.90;;;;;;4990397;28;20244;-59
2021/08/26 03:23:40;;;;;;;7.00;1.15;;;14.20;99.90;;;;;;4992671;28;20320;-59
2021/08/26 03:26:07;;;;;;;6.18;1.13;;;14.20;99.90;;;;;;4990372;28;20113;-60
2021/08/26 03:28:32;;;;;;;4.10;1.20;;;14.30;99.90;;;;;;4991332;28;20042;-59
2021/08/26 03:30:58;;;;;;;8.40;1.60;;;14.30;99.90;;;;;;4989019;28;20026;-60
2021/08/26 03:33:24;;;;;;;6.55;1.27;;;14.20;99.90;;;;;;4991413;28;20253;-60
2021/08/26 03:35:50;;;;;;;9.18;1.30;;;14.20;99.90;;;;;;4987020;28;20253;-60
2021/08/26 03:38:16;;;;;;;6.20;1.33;;;14.30;99.90;;;;;;4993144;28;20078;-60
2021/08/26 03:40:42;;;;;;;4.93;1.30;;;14.30;99.90;;;;;;4991365;28;20050;-59
2021/08/26 03:43:08;;;;;;;7.20;1.58;;;14.30;99.90;;;;;;4994854;28;20062;-59
2021/08/26 03:45:34;;;;;;;6.43;1.35;;;14.20;99.90;;;;;;4995852;28;20353;-59
2021/08/26 03:48:00;;;;;;;5.82;1.80;;;14.20;99.90;;;;;;4994150;28;20040;-59
2021/08/26 03:50:26;;;;;;;5.93;1.70;;;14.20;99.90;;;;;;4993342;28;20040;-59
2021/08/26 03:52:52;;;;;;;5.13;2.00;;;14.20;99.90;;;;;;4992471;28;20031;-60
2021/08/26 03:55:17;;;;;;;10.35;1.80;;;14.20;99.90;;;;;;4992981;28;20046;-59
2021/08/26 03:57:43;;;;;;;5.65;2.05;;;14.20;99.90;;;;;;4991857;28;20403;-60
2021/08/26 04:00:09;;;;;;;6.95;1.50;;;14.20;99.90;;;;;;4993014;28;20268;-60
2021/08/26 04:02:35;;;;;;;4.03;1.67;;;14.20;99.90;;;;;;4992104;28;20523;-60
2021/08/26 04:05:01;;;;;;;7.03;2.22;;;14.20;99.90;;;;;;4991928;28;20027;-60
2021/08/26 04:07:31;;;;;;;4.22;1.65;;;14.20;99.90;;;;;;4992338;28;20060;-60
2021/08/26 04:09:58;;;;;;;4.25;1.50;;;14.20;99.90;;;;;;4994016;28;20031;-72
2021/08/26 04:12:26;;;;;;;4.30;1.20;;;14.10;99.90;;;;;;5000985;28;20034;-72
2021/08/26 04:14:53;;;;;;;5.93;1.40;;;14.00;99.90;;;;;;4991336;28;20293;-71
2021/08/26 04:17:18;;;;;;;3.53;1.27;;;13.90;99.90;;;;;;4992215;28;20046;-72
2021/08/26 04:19:44;;;;;;;3.97;1.30;;;13.80;99.90;;;;;;4993788;28;20081;-71
2021/08/26 04:22:10;;;;;;;6.35;1.02;;;13.80;99.90;;;;;;4992903;28;20045;-72
2021/08/26 04:24:36;;;;;;;4.43;1.27;;;13.70;99.90;;;;;;4994434;28;20026;-71
2021/08/26 04:27:04;;;;;;;8.25;1.70;;;13.60;99.90;;;;;;4993809;28;20193;-72
2021/08/26 04:29:30;;;;;;;5.18;1.55;;;13.40;99.90;;;;;;4992349;28;20252;-71
2021/08/26 04:31:55;;;;;;;4.88;1.23;;;13.40;99.90;;;;;;4991918;28;20034;-71
2021/08/26 04:34:21;;;;;;;3.58;1.02;;;13.30;99.90;;;;;;4993932;28;20089;-71
2021/08/26 04:36:47;;;;;;;7.22;1.00;;;13.20;99.90;;;;;;4989224;28;20038;-71
2021/08/26 04:39:13;;;;;;;4.75;0.90;;;13.20;99.90;;;;;;4992338;28;20061;-71
2021/08/26 04:41:39;;;;;;;5.63;0.98;;;13.20;99.90;;;;;;4992333;28;20069;-71
2021/08/26 04:44:07;;;;;;;7.20;0.98;;;13.20;99.90;;;;;;4991647;28;20379;-71
2021/08/26 04:46:33;;;;;;;3.83;0.70;;;13.10;99.90;;;;;;4991426;28;20030;-71
2021/08/26 04:48:58;;;;;;;2.83;0.82;;;13.10;99.90;;;;;;4988650;28;20117;-71
2021/08/26 04:51:24;;;;;;;5.55;1.05;;;13.10;99.90;;;;;;4988046;28;20030;-71
2021/08/26 04:53:50;;;;;;;5.22;1.17;;;13.10;99.90;;;;;;4990443;28;20104;-71
2021/08/26 04:56:16;;;;;;;8.95;1.35;;;13.10;99.90;;;;;;4989652;28;20228;-72
2021/08/26 04:58:42;;;;;;;7.18;1.50;;;13.10;99.90;;;;;;4991352;28;20030;-72
2021/08/26 05:01:08;;;;;;;7.45;1.58;;;13.10;99.90;;;;;;4993044;28;20216;-72
2021/08/26 05:03:34;;;;;;;3.65;1.10;;;13.20;99.90;;;;;;4993006;28;20022;-71
2021/08/26 05:06:03;;;;;;;5.07;1.65;;;13.10;99.90;;;;;;4993264;28;20422;-72
2021/08/26 05:08:29;;;;;;;5.22;1.33;;;13.10;99.90;;;;;;4993682;28;20069;-71
2021/08/26 05:10:55;;;;;;;5.35;1.38;;;13.20;99.90;;;;;;4993495;28;20314;-71
2021/08/26 05:13:20;;;;;;;9.77;1.50;;;13.20;99.90;;;;;;4992160;28;20042;-71
2021/08/26 05:15:46;;;;;;;7.13;1.25;;;13.20;99.90;;;;;;4993580;28;20100;-71
2021/08/26 05:18:12;;;;;;;7.78;1.63;;;13.30;99.90;;;;;;4993985;28;20256;-71
2021/08/26 05:20:38;;;;;;;6.72;1.20;;;13.30;99.90;;;;;;4993842;28;20077;-72
2021/08/26 05:23:04;;;;;;;3.95;1.00;;;13.40;99.90;;;;;;5001806;28;20034;-71
2021/08/26 05:25:29;;;;;;;5.32;1.00;;;13.50;99.90;;;;;;4994053;28;20022;-71
2021/08/26 05:27:55;;;;;;;8.10;1.48;;;13.60;99.90;;;;;;4994952;28;20216;-71
2021/08/26 05:30:21;;;;;;;3.33;0.98;;;13.70;99.90;;;;;;4994688;28;20042;-71
2021/08/26 05:32:48;;;;;;;9.23;1.67;;;13.70;99.90;;;;;;4993717;28;20037;-72
2021/08/26 05:35:14;;;;;;;7.22;1.17;;;13.80;99.90;;;;;;4994591;28;20026;-71
2021/08/26 05:37:40;;;;;;;8.45;2.13;;;13.90;99.90;;;;;;4992884;28;20042;-72
2021/08/26 05:40:07;;;;;;;8.27;1.52;;;14.00;99.90;;;;;;4993332;28;20066;-71
2021/08/26 05:42:33;;;;;;;7.20;1.55;;;14.20;99.90;;;;;;4993964;28;20477;-71
2021/08/26 05:44:58;;;;;;;8.07;1.20;;;14.30;99.90;;;;;;4994022;28;20386;-72
2021/08/26 05:47:24;;;;;;;6.25;1.45;;;14.40;99.90;;;;;;5009097;28;20253;-71
2021/08/26 05:49:50;;;;;;;5.40;0.90;;;14.40;99.90;;;;;;4993588;28;20353;-71
2021/08/26 05:52:16;;;;;;;6.80;1.10;;;14.50;99.90;;;;;;4993440;28;20037;-72
2021/08/26 05:54:42;;;;;;;5.05;1.35;;;14.70;99.90;;;;;;4993747;28;20023;-72
2021/08/26 05:57:08;;;;;;;8.35;1.63;;;14.80;99.90;;;;;;4991732;28;20045;-72
2021/08/26 05:59:33;;;;;;;7.93;1.48;;;14.90;99.90;;;;;;4993423;28;20088;-71
2021/08/26 06:02:00;;;;;;;6.53;1.67;;;15.00;99.90;;;;;;4992195;28;20034;-72
2021/08/26 06:04:27;;;;;;;4.95;1.08;;;15.20;99.90;;;;;;4991541;28;20124;-72
2021/08/26 06:06:52;;;;;;;4.00;0.80;;;15.20;99.90;;;;;;4992526;28;20030;-72
2021/08/26 06:09:18;;;;;;;6.07;1.10;;;15.30;99.90;;;;;;4993594;28;20026;-72
2021/08/26 06:11:44;;;;;;;4.97;1.30;;;15.40;99.90;;;;;;4992898;28;20058;-72
2021/08/26 06:14:11;;;;;;;3.88;1.20;;;15.60;99.90;;;;;;4993223;28;20354;-72
2021/08/26 06:16:37;;;;;;;9.15;1.98;;;15.70;99.90;;;;;;4992613;28;20046;-72
2021/08/26 06:19:03;;;;;;;6.63;1.58;;;15.90;99.90;;;;;;4990314;28;20041;-72
2021/08/26 06:21:29;;;;;;;4.25;1.42;;;16.10;99.90;;;;;;4992872;28;20034;-72
2021/08/26 06:23:54;;;;;;;6.47;1.15;;;16.10;99.90;;;;;;4992797;28;20096;-72
2021/08/26 06:26:21;;;;;;;6.47;1.25;;;16.30;99.90;;;;;;4993627;28;20030;-72
2021/08/26 06:28:46;;;;;;;5.18;1.02;;;16.50;99.90;;;;;;4991461;28;20030;-71
2021/08/26 06:31:13;;;;;;;8.10;1.70;;;16.60;99.90;;;;;;4992193;28;20276;-72
2021/08/26 06:33:39;;;;;;;5.40;0.88;;;16.80;99.90;;;;;;4993497;28;20371;-73
2021/08/26 06:36:05;;;;;;;5.93;1.38;;;16.90;99.90;;;;;;4993207;28;20340;-72
2021/08/26 06:38:31;;;;;;;4.30;1.08;;;17.00;99.90;;;;;;4992237;28;20132;-72
2021/08/26 06:40:57;;;;;;;5.68;1.20;;;17.20;99.90;;;;;;4992776;28;20100;-73
2021/08/26 06:43:24;;;;;;;9.70;1.70;;;17.30;99.90;;;;;;4993116;28;20382;-72
2021/08/26 06:45:49;;;;;;;4.68;1.23;;;17.40;99.90;;;;;;4992948;28;20022;-72
2021/08/26 06:48:15;;;;;;;13.98;1.38;;;17.50;99.90;;;;;;4993273;28;20097;-72
2021/08/26 06:50:41;;;;;;;8.13;1.52;;;17.70;99.90;;;;;;4992808;28;20341;-72
2021/08/26 06:53:07;;;;;;;7.45;1.42;;;17.90;99.90;;;;;;4991023;28;20027;-73
2021/08/26 06:55:33;;;;;;;4.30;1.38;;;17.90;99.90;;;;;;4992831;28;20026;-72
2021/08/26 06:57:59;;;;;;;6.95;1.58;;;18.00;99.90;;;;;;4991639;28;20246;-71
2021/08/26 07:00:25;;;;;;;4.35;1.10;;;18.00;99.90;;;;;;4992988;28;20268;-72
2021/08/26 07:02:51;;;;;;;4.55;1.20;;;17.80;99.90;;;;;;4990206;28;20033;-72
2021/08/26 07:05:17;;;;;;;8.68;2.15;;;17.60;99.90;;;;;;4992830;28;20248;-73
2021/08/26 07:07:43;;;;;;;6.63;1.48;;;17.80;99.90;;;;;;4992896;28;20023;-73
2021/08/26 07:10:09;;;;;;;6.03;1.02;;;17.80;99.90;;;;;;4992946;28;20320;-72
2021/08/26 07:12:34;;;;;;;6.10;1.70;;;17.90;99.90;;;;;;4990638;28;20086;-72
2021/08/26 07:15:03;;;;;;;5.78;1.65;;;17.80;99.90;;;;;;4992555;28;20069;-72
2021/08/26 07:17:29;;;;;;;5.07;1.33;;;17.60;99.90;;;;;;5007528;28;20057;-72
2021/08/26 07:19:54;;;;;;;8.05;1.63;;;17.40;99.90;;;;;;5007557;28;20027;-72
2021/08/26 07:22:20;;;;;;;6.13;1.30;;;17.40;99.90;;;;;;4991111;28;20138;-72
2021/08/26 07:24:46;;;;;;;11.80;1.45;;;17.40;99.90;;;;;;4991212;28;20123;-71
2021/08/26 07:27:12;;;;;;;8.32;1.50;;;17.20;99.90;;;;;;4992115;28;20034;-72
2021/08/26 07:29:38;;;;;;;4.35;1.13;;;17.20;99.90;;;;;;4992672;28;20041;-72
2021/08/26 07:32:04;;;;;;;7.03;1.52;;;17.50;99.90;;;;;;4992065;28;20093;-72
2021/08/26 07:34:30;;;;;;;6.60;1.70;;;18.00;99.90;;;;;;4991084;28;20205;-72
2021/08/26 07:36:56;;;;;;;6.80;1.67;;;18.50;99.90;;;;;;4989091;28;20037;-72
2021/08/26 07:39:22;;;;;;;11.05;1.60;;;19.00;99.90;;;;;;4993126;28;20034;-72
2021/08/26 07:41:48;;;;;;;3.30;0.93;;;19.20;99.90;;;;;;4990760;28;20316;-71
2021/08/26 07:44:14;;;;;;;6.97;1.63;;;19.10;99.90;;;;;;4991945;28;20022;-72
2021/08/26 07:46:40;;;;;;;7.35;1.15;;;18.80;99.90;;;;;;4990461;28;20363;-72
2021/08/26 07:49:07;;;;;;;5.30;1.20;;;18.70;99.90;;;;;;4986731;28;20116;-72
2021/08/26 07:51:33;;;;;;;5.90;1.20;;;18.20;99.90;;;;;;4993130;28;20026;-72
2021/08/26 07:53:59;;;;;;;4.00;1.38;;;18.00;99.90;;;;;;4992600;28;20061;-72
2021/08/26 07:56:26;;;;;;;6.85;1.55;;;18.40;99.90;;;;;;4989996;28;20281;-73
2021/08/26 07:58:52;;;;;;;3.17;1.13;;;19.00;99.90;;;;;;4991605;28;20038;-72
2021/08/26 08:01:17;;;;;;;4.88;1.23;;;19.20;99.90;;;;;;4990401;28;20226;-72
2021/08/26 08:03:43;;;;;;;5.93;1.65;;;19.40;99.90;;;;;;4989455;28;20352;-72
2021/08/26 08:06:11;;;;;;;3.75;1.40;;;19.90;99.90;;;;;;4992542;28;20320;-73
2021/08/26 08:08:36;;;;;;;6.93;1.10;;;20.00;99.90;;;;;;4989726;28;20026;-72
2021/08/26 08:11:02;;;;;;;5.22;1.10;;;20.00;99.90;;;;;;4991935;28;20054;-72
2021/08/26 08:13:28;;;;;;;7.60;1.27;;;19.60;99.90;;;;;;4990798;28;20073;-73
2021/08/26 08:15:54;;;;;;;6.57;1.65;;;19.30;99.90;;;;;;4992425;28;20360;-73
2021/08/26 08:18:21;;;;;;;4.65;1.08;;;18.90;99.90;;;;;;4990721;28;20058;-72
2021/08/26 08:20:47;;;;;;;5.95;1.17;;;18.70;99.90;;;;;;4992111;28;20080;-72
2021/08/26 08:23:13;;;;;;;7.90;1.50;;;18.50;99.90;;;;;;4991749;28;20097;-72
2021/08/26 08:25:38;;;;;;;5.57;1.05;;;18.40;99.90;;;;;;4995460;28;20391;-72
2021/08/26 08:28:13;;;;;;;12.38;2.20;;;18.40;99.90;;;;;;4993653;28;20479;-72
2021/08/26 08:30:39;;;;;;;6.00;1.40;;;18.40;99.90;;;;;;5002904;28;20097;-72
2021/08/26 08:33:05;;;;;;;8.63;1.85;;;18.60;99.90;;;;;;4995507;28;20026;-72
2021/08/26 08:35:31;;;;;;;10.65;1.63;;;18.70;99.90;;;;;;4995742;28;20037;-72
2021/08/26 08:37:57;;;;;;;6.68;1.63;;;18.60;99.90;;;;;;4995323;28;20104;-72
2021/08/26 08:40:22;;;;;;;5.55;1.50;;;18.80;99.90;;;;;;4995127;28;20044;-72
2021/08/26 08:42:48;;;;;;;5.40;1.25;;;19.00;99.90;;;;;;4994600;28;20097;-72
2021/08/26 08:45:14;;;;;;;8.38;1.60;;;19.10;99.90;;;;;;4995567;28;20022;-72
2021/08/26 08:47:42;;;;;;;12.75;1.50;;;19.30;99.90;;;;;;4995670;28;20037;-73
2021/08/26 08:50:08;;;;;;;4.50;0.95;;;19.50;99.90;;;;;;4995518;28;20027;-72
2021/08/26 08:52:39;;;;;;;8.88;1.42;;;19.50;99.90;;;;;;4994898;28;20224;-72
2021/08/26 08:55:11;;;;;;;5.65;1.50;;;19.30;99.90;;;;;;4995568;28;20041;-72
2021/08/26 08:57:41;;;;;;;4.97;1.40;;;19.10;99.90;;;;;;4995055;28;20042;-72
2021/08/26 09:00:10;;;;;;;10.13;1.80;;;19.30;99.90;;;;;;4995154;28;20077;-72
2021/08/26 09:02:35;;;;;;;3.47;0.98;;;19.40;99.90;;;;;;4994232;28;20089;-72
2021/08/26 09:05:02;;;;;;;12.23;1.67;;;19.50;99.90;;;;;;4993256;28;20034;-72
2021/08/26 09:07:30;;;;;;;9.85;1.52;;;20.10;99.90;;;;;;4995327;28;20065;-72
2021/08/26 09:09:57;;;;;;;5.75;1.50;;;20.60;99.90;;;;;;4995006;28;20030;-72
2021/08/26 09:12:41;;;;;;;4.88;1.17;;;20.80;99.90;;;;;;4993101;28;20232;-74
2021/08/26 09:15:10;;;;;;;6.00;1.50;;;20.80;99.90;;;;;;4994662;28;20367;-72
2021/08/26 09:17:36;;;;;;;3.37;1.00;;;21.10;99.90;;;;;;4993442;28;20050;-72
2021/08/26 09:20:08;;;;;;;14.75;1.50;;;21.00;99.90;;;;;;4994834;28;20448;-73
2021/08/26 09:22:34;;;;;;;5.68;1.10;;;20.90;99.90;;;;;;4993157;28;20108;-72
2021/08/26 09:24:59;;;;;;;5.95;1.67;;;20.80;99.90;;;;;;4994306;28;20034;-72
2021/08/26 09:27:31;;;;;;;6.20;1.60;;;20.60;99.90;;;;;;4993878;28;20045;-72
2021/08/26 09:29:59;;;;;;;6.32;1.50;;;20.40;99.90;;;;;;4992653;28;20247;-73
2021/08/26 09:32:41;;;;;;;7.15;1.60;;;20.50;99.90;;;;;;4993072;28;20033;-72
2021/08/26 09:35:16;;;;;;;6.25;1.75;;;20.70;99.90;;;;;;4992192;28;20252;-72
2021/08/26 09:37:51;;;;;;;6.57;1.42;;;20.70;99.90;;;;;;5001397;28;20228;-72
2021/08/26 09:40:19;;;;;;;6.32;1.90;;;20.40;99.90;;;;;;4993459;28;20387;-72
2021/08/26 09:43:04;;;;;;;5.53;1.83;;;20.30;99.90;;;;;;4993814;28;20035;-72
2021/08/26 09:45:38;;;;;;;6.15;1.42;;;20.20;99.90;;;;;;4993709;28;20332;-72
2021/08/26 09:48:11;;;;;;;8.13;1.70;;;20.00;99.90;;;;;;4991848;28;20205;-71
2021/08/26 09:50:48;;;;;;;6.53;1.83;;;19.90;99.90;;;;;;4993695;28;20097;-72
2021/08/26 09:53:16;;;;;;;6.32;1.83;;;19.70;99.90;;;;;;4993247;28;20042;-73
2021/08/26 09:55:48;;;;;;;6.88;1.50;;;19.50;99.90;;;;;;4992847;28;20066;-71
2021/08/26 09:58:17;;;;;;;11.38;1.80;;;19.40;99.90;;;;;;4990904;28;20034;-73
2021/08/26 10:00:44;;;;;;;9.30;1.92;;;19.20;99.90;;;;;;4993029;28;20049;-72
2021/08/26 10:03:12;;;;;;;8.23;1.75;;;19.00;99.90;;;;;;4991963;28;20128;-72
2021/08/26 10:05:39;;;;;;;7.18;1.83;;;19.30;99.90;;;;;;4993817;28;20030;-73
2021/08/26 10:08:06;;;;;;;8.20;1.67;;;19.60;99.90;;;;;;4993957;28;20031;-71
2021/08/26 10:10:33;;;;;;;10.52;1.70;;;20.20;99.90;;;;;;4992958;28;20030;-72
2021/08/26 10:13:02;;;;;;;5.97;1.80;;;21.10;99.90;;;;;;4993095;28;20117;-72
2021/08/26 10:15:28;;;;;;;6.75;2.10;;;21.70;99.90;;;;;;4993252;28;20447;-73
2021/08/26 10:17:54;;;;;;;13.05;2.30;;;21.80;99.90;;;;;;4993962;28;20052;-72
2021/08/26 10:20:21;;;;;;;6.28;1.77;;;22.20;99.90;;;;;;4992875;28;20028;-73
2021/08/26 10:22:48;;;;;;;13.02;2.28;;;22.30;99.90;;;;;;4993365;28;20025;-72
2021/08/26 10:25:15;;;;;;;6.50;2.20;;;22.50;99.90;;;;;;4992061;28;20471;-72
2021/08/26 10:27:43;;;;;;;6.53;1.77;;;22.60;99.90;;;;;;4993505;28;20058;-73
2021/08/26 10:30:09;;;;;;;7.75;1.83;;;22.90;99.90;;;;;;4992400;28;20026;-72
2021/08/26 10:32:35;;;;;;;7.78;1.83;;;22.80;99.50;;;;;;4992826;28;20363;-72
2021/08/26 10:35:12;;;;;;;10.85;2.05;;;22.70;99.90;;;;;;4993663;28;20062;-73
2021/08/26 10:37:54;;;;;;;6.03;2.05;;;23.30;99.50;;;;;;4993152;28;20385;-73
2021/08/26 10:40:25;;;;;;;7.95;1.63;;;23.60;99.10;;;;;;4992983;28;20379;-72
2021/08/26 10:42:52;;;;;;;7.78;2.03;;;23.70;99.20;;;;;;4992884;28;20037;-73
2021/08/26 10:45:27;;;;;;;13.35;2.72;;;23.50;98.20;;;;;;5000261;28;20209;-73
2021/08/26 10:47:54;;;;;;;8.45;2.05;;;22.80;99.30;;;;;;4993205;28;20076;-73
2021/08/26 10:50:31;;;;;;;8.40;2.17;;;22.50;99.50;;;;;;4993126;28;20228;-73
2021/08/26 10:53:15;;;;;;;9.07;2.28;;;22.10;99.50;;;;;;4992583;28;20357;-72
2021/08/26 10:55:53;;;;;;;8.68;2.20;;;21.80;99.60;;;;;;4992707;28;20305;-72
2021/08/26 10:58:25;;;;;;;8.48;2.42;;;21.70;99.90;;;;;;4993334;28;20376;-72
2021/08/26 11:01:08;;;;;;;10.88;2.33;;;21.50;99.80;;;;;;5000638;28;20034;-72
2021/08/26 11:03:34;;;;;;;10.43;1.98;;;21.50;99.90;;;;;;4999472;28;20329;-72
2021/08/26 11:06:18;;;;;;;12.93;2.33;;;21.20;99.90;;;;;;4993540;28;20060;-72
2021/08/26 11:08:45;;;;;;;6.55;2.05;;;21.20;99.90;;;;;;4992339;28;20100;-72
2021/08/26 11:11:31;;;;;;;5.88;2.08;;;21.90;99.90;;;;;;4993108;28;20248;-73
2021/08/26 11:14:02;;;;;;;6.43;1.92;;;22.20;99.90;;;;;;4992505;28;20346;-72
2021/08/26 11:16:28;;;;;;;13.73;2.42;;;22.20;99.50;;;;;;4992007;28;20080;-73
2021/08/26 11:19:18;;;;;;;9.02;2.30;;;22.00;99.10;;;;;;4989518;28;20034;-72
2021/08/26 11:21:44;;;;;;;9.80;2.00;;;21.70;99.40;;;;;;4998217;28;20345;-72
2021/08/26 11:24:16;;;;;;;9.27;1.90;;;21.60;99.80;;;;;;4990500;28;20076;-72
2021/08/26 11:26:45;;;;;;;8.65;1.80;;;21.60;99.90;;;;;;4992103;28;20061;-72
2021/08/26 11:29:20;;;;;;;6.80;1.80;;;21.50;99.60;;;;;;4990420;28;20045;-72
2021/08/26 11:31:54;;;;;;;7.53;1.83;;;21.30;99.90;;;;;;4992171;28;20026;-73
2021/08/26 11:34:22;;;;;;;11.52;2.72;;;21.10;99.90;;;;;;4997784;28;20038;-72
2021/08/26 11:37:09;;;;;;;10.75;2.30;;;20.70;99.90;;;;;;4991025;28;20062;-71
2021/08/26 11:39:45;;;;;;;8.20;2.20;;;20.50;99.90;;;;;;4991738;28;20031;-71
2021/08/26 11:42:38;;;;;;;13.05;3.33;;;20.30;99.90;;;;;;4992922;28;20033;-71
2021/08/26 11:45:17;;;;;;;10.80;2.72;;;20.30;99.90;;;;;;4988632;28;20326;-71
2021/08/26 11:47:48;;;;;;;9.68;2.22;;;20.10;99.90;;;;;;4992894;28;20108;-71
2021/08/26 11:50:22;;;;;;;7.70;2.15;;;20.10;99.90;;;;;;4992760;28;20118;-72
2021/08/26 11:52:53;;;;;;;7.00;2.15;;;20.00;99.90;;;;;;4991185;28;20375;-72
2021/08/26 11:55:21;;;;;;;12.50;2.85;;;19.80;99.90;;;;;;4991965;28;20018;-71
2021/08/26 11:57:56;;;;;;;7.05;1.92;;;19.60;99.90;;;;;;4991916;28;20038;-71
2021/08/26 12:00:23;;;;;;;9.95;2.47;;;19.40;99.90;;;;;;4996359;28;20217;-71
2021/08/26 12:02:55;;;;;;;11.38;2.60;;;19.30;99.90;;;;;;4996111;28;20113;-71
2021/08/26 12:05:23;;;;;;;10.30;2.33;;;19.20;99.90;;;;;;4995597;28;20367;-71
2021/08/26 12:07:51;;;;;;;13.85;2.60;;;19.20;99.90;;;;;;4996107;28;20097;-71
2021/08/26 12:10:24;;;;;;;9.65;1.83;;;19.30;99.90;;;;;;4996076;28;20026;-71
2021/08/26 12:12:55;;;;;;;11.98;2.50;;;19.30;99.90;;;;;;4995722;28;20446;-71
2021/08/26 12:15:43;;;;;;;11.55;2.55;;;19.40;99.90;;;;;;4995723;28;20268;-71
2021/08/26 12:18:27;;;;;;;9.25;2.50;;;19.40;99.90;;;;;;4995024;28;20140;-71
2021/08/26 12:21:03;;;;;;;9.57;1.92;;;19.20;99.90;;;;;;4986588;28;20036;-72
2021/08/26 12:23:31;;;;;;;8.20;2.08;;;19.20;99.90;;;;;;4994415;28;20058;-71
2021/08/26 12:26:10;;;;;;;16.15;2.90;;;19.10;99.90;;;;;;4995985;28;20054;-71
2021/08/26 12:28:45;;;;;;;10.60;2.67;;;19.00;99.90;;;;;;4994999;28;20293;-71
2021/08/26 12:31:17;;;;;;;9.93;2.30;;;19.10;99.90;;;;;;4994214;28;20797;-71
2021/08/26 12:34:06;;;;;;;9.32;1.90;;;19.10;99.90;;;;;;4995594;28;20052;-71
2021/08/26 12:36:34;;;;;;;11.52;2.67;;;19.20;99.90;;;;;;4995092;28;20036;-71
2021/08/26 12:39:00;;;;;;;18.05;3.38;;;19.20;99.90;;;;;;5009447;28;20281;-71
2021/08/26 12:41:27;;;;;;;9.05;2.45;;;19.20;99.90;;;;;;4994455;28;20351;-70
2021/08/26 12:43:57;;;;;;;10.50;2.58;;;19.20;99.90;;;;;;4995726;28;20216;-71
2021/08/26 12:46:29;;;;;;;9.43;2.50;;;19.30;99.90;;;;;;4994889;28;20248;-71
2021/08/26 12:49:09;;;;;;;6.72;1.95;;;19.40;99.90;;;;;;4992762;28;20713;-72
2021/08/26 12:51:50;;;;;;;8.55;2.38;;;19.30;99.90;;;;;;4994604;28;20045;-71
2021/08/26 12:54:15;;;;;;;12.32;2.80;;;19.20;99.90;;;;;;4995393;28;20026;-72